createdAt,value
2019-05-09T00:02:34.686Z,5.42
2019-05-09T00:05:05.072Z,5.75
2019-05-09T00:07:34.732Z,5.50
2019-05-09T00:10:05.591Z,5.87
2019-05-09T00:12:35.241Z,6.15
2019-05-09T00:15:06.705Z,5.42
2019-05-09T00:17:36.365Z,6.00
2019-05-09T00:20:08.170Z,5.87
2019-05-09T00:22:37.836Z,6.12
2019-05-09T00:25:07.890Z,5.67
2019-05-09T00:27:37.768Z,5.72
2019-05-09T00:30:08.005Z,5.87
2019-05-09T00:32:39.396Z,6.17
2019-05-09T00:35:23.375Z,5.97
2019-05-09T00:37:54.938Z,5.92
2019-05-09T00:40:25.208Z,5.45
2019-05-09T00:42:55.127Z,5.78
2019-05-09T00:45:43.771Z,5.55
2019-05-09T00:48:14.524Z,5.97
2019-05-09T00:50:44.147Z,6.17
2019-05-09T00:53:13.927Z,6.22
2019-05-09T00:55:43.721Z,6.47
2019-05-09T00:58:13.682Z,5.25
2019-05-09T01:00:43.950Z,5.87
2019-05-09T01:03:14.315Z,5.67
2019-05-09T01:05:47.240Z,7.28
2019-05-09T01:08:16.605Z,6.12
2019-05-09T01:10:47.685Z,5.60
2019-05-09T01:13:18.828Z,6.05
2019-05-09T01:15:49.883Z,5.90
2019-05-09T01:18:19.537Z,5.75
2019-05-09T01:20:49.261Z,5.87
2019-05-09T01:23:20.348Z,6.15
2019-05-09T01:25:52.958Z,6.05
2019-05-09T01:28:23.216Z,5.87
2019-05-09T01:30:53.307Z,6.28
2019-05-09T01:33:24.730Z,6.15
2019-05-09T01:35:54.852Z,5.92
2019-05-09T01:38:24.522Z,6.37
2019-05-09T01:40:54.138Z,7.10
2019-05-09T01:43:24.409Z,6.47
2019-05-09T01:45:54.174Z,6.30
2019-05-09T01:48:23.827Z,6.40
2019-05-09T01:50:53.829Z,6.80
2019-05-09T01:53:25.115Z,6.15
2019-05-09T01:55:57.785Z,6.28
2019-05-09T01:58:29.146Z,6.42
2019-05-09T02:00:59.345Z,6.10
2019-05-09T02:03:29.140Z,6.78
2019-05-09T02:05:58.797Z,6.72
2019-05-09T02:08:28.447Z,6.20
2019-05-09T02:10:58.104Z,6.80
2019-05-09T02:13:27.731Z,6.28
2019-05-09T02:16:14.694Z,7.15
2019-05-09T02:18:45.989Z,6.22
2019-05-09T02:21:15.641Z,6.37
2019-05-09T02:23:45.273Z,6.70
2019-05-09T02:26:15.393Z,6.08
2019-05-09T02:28:45.015Z,7.47
2019-05-09T02:31:16.289Z,6.67
2019-05-09T02:33:46.123Z,6.95
2019-05-09T02:36:18.753Z,6.83
2019-05-09T02:38:48.763Z,6.42
2019-05-09T02:41:19.726Z,7.50
2019-05-09T02:43:49.974Z,6.17
2019-05-09T02:46:29.406Z,6.33
2019-05-09T02:48:59.492Z,7.53
2019-05-09T02:51:29.552Z,6.75
2019-05-09T02:53:59.201Z,7.35
2019-05-09T02:56:29.827Z,6.40
2019-05-09T02:59:10.153Z,7.28
2019-05-09T03:01:58.753Z,6.75
2019-05-09T03:04:28.646Z,7.03
2019-05-09T03:06:59.653Z,7.53
2019-05-09T03:09:29.662Z,7.12
2019-05-09T03:12:19.533Z,7.62
2019-05-09T03:14:31.670Z,7.30
2019-05-09T03:17:01.325Z,7.17
2019-05-09T03:19:31.043Z,7.65
2019-05-09T03:22:13.766Z,6.97
2019-05-09T03:24:43.393Z,7.45
2019-05-09T03:27:18.725Z,7.50
2019-05-09T03:29:50.053Z,8.08
2019-05-09T03:32:21.096Z,7.72
2019-05-09T03:34:50.716Z,7.37
2019-05-09T03:37:20.369Z,7.90
2019-05-09T03:39:49.999Z,6.85
2019-05-09T03:42:22.998Z,7.30
2019-05-09T03:44:50.976Z,7.62
2019-05-09T03:47:27.901Z,6.92
2019-05-09T03:50:11.001Z,7.62
2019-05-09T03:52:40.730Z,7.60
2019-05-09T03:55:13.277Z,7.30
2019-05-09T03:57:44.651Z,7.22
2019-05-09T04:00:14.640Z,8.20
2019-05-09T04:02:44.264Z,8.50
2019-05-09T04:05:13.918Z,9.18
2019-05-09T04:07:43.548Z,11.40
2019-05-09T04:10:13.218Z,12.33
2019-05-09T04:12:53.889Z,9.65
2019-05-09T04:15:14.265Z,8.35
2019-05-09T04:17:44.374Z,8.68
2019-05-09T04:20:17.536Z,8.10
2019-05-09T04:22:49.039Z,9.20
2019-05-09T04:25:19.977Z,8.20
2019-05-09T04:27:51.237Z,8.20
2019-05-09T04:30:20.892Z,7.42
2019-05-09T04:32:50.516Z,7.50
2019-05-09T04:35:20.803Z,10.80
2019-05-09T04:37:50.458Z,12.90
2019-05-09T04:40:22.264Z,7.75
2019-05-09T04:42:51.893Z,7.22
2019-05-09T04:45:33.121Z,6.80
2019-05-09T04:48:00.457Z,7.53
2019-05-09T04:50:30.155Z,15.83
2019-05-09T04:55:48.509Z,8.03
2019-05-09T04:58:19.277Z,8.38
2019-05-09T05:01:07.365Z,7.25
2019-05-09T05:03:37.824Z,7.42
2019-05-09T05:06:07.760Z,7.28
2019-05-09T05:08:37.622Z,7.83
2019-05-09T05:11:07.575Z,7.90
2019-05-09T05:13:38.376Z,7.53
2019-05-09T05:16:08.435Z,7.67
2019-05-09T05:18:38.119Z,6.78
2019-05-09T05:21:07.953Z,6.80
2019-05-09T05:23:50.947Z,7.12
2019-05-09T05:26:21.748Z,7.33
2019-05-09T05:28:51.388Z,8.15
2019-05-09T05:31:21.052Z,7.33
2019-05-09T05:33:53.908Z,8.70
2019-05-09T05:36:24.030Z,8.20
2019-05-09T05:38:53.948Z,7.95
2019-05-09T05:41:23.608Z,8.73
2019-05-09T05:43:53.288Z,8.93
2019-05-09T05:46:30.547Z,9.35
2019-05-09T05:49:00.388Z,8.03
2019-05-09T05:51:31.719Z,7.75
2019-05-09T05:54:02.075Z,39.38
2019-05-09T05:56:31.705Z,7.97
2019-05-09T05:59:01.366Z,9.53
2019-05-09T06:01:31.459Z,8.33
2019-05-09T06:04:01.123Z,8.53
2019-05-09T06:06:33.072Z,8.73
2019-05-09T06:09:03.816Z,7.58
2019-05-09T06:11:33.444Z,8.03
2019-05-09T06:14:10.957Z,9.58
2019-05-09T06:16:37.824Z,9.73
2019-05-09T06:19:09.009Z,8.13
2019-05-09T06:21:38.762Z,9.08
2019-05-09T06:24:08.642Z,7.90
2019-05-09T06:26:38.254Z,7.87
2019-05-09T06:29:08.233Z,7.62
2019-05-09T06:31:37.856Z,8.30
2019-05-09T06:34:08.370Z,9.50
2019-05-09T06:36:39.073Z,9.30
2019-05-09T06:39:10.506Z,8.00
2019-05-09T06:41:40.103Z,8.18
2019-05-09T06:44:18.181Z,8.88
2019-05-09T06:46:48.253Z,8.50
2019-05-09T06:49:27.626Z,9.43
2019-05-09T06:51:50.952Z,8.35
2019-05-09T06:54:20.603Z,7.40
2019-05-09T06:56:50.233Z,7.78
2019-05-09T06:59:19.897Z,7.90
2019-05-09T07:01:53.876Z,7.53
2019-05-09T07:04:25.184Z,7.45
2019-05-09T07:06:58.743Z,8.38
2019-05-09T07:09:35.770Z,8.48
2019-05-09T07:12:07.649Z,8.53
2019-05-09T07:14:41.363Z,9.48
2019-05-09T07:17:08.618Z,10.48
2019-05-09T07:19:38.669Z,8.85
2019-05-09T07:22:18.416Z,7.08
2019-05-09T07:25:10.443Z,7.75
2019-05-09T07:27:42.498Z,8.38
2019-05-09T07:30:21.342Z,9.10
2019-05-09T07:33:01.637Z,7.97
2019-05-09T07:35:31.723Z,8.43
2019-05-09T07:38:01.381Z,9.15
2019-05-09T07:40:31.039Z,8.05
2019-05-09T07:43:00.698Z,9.03
2019-05-09T07:45:30.322Z,8.75
2019-05-09T07:48:00.317Z,10.23
2019-05-09T07:50:29.945Z,8.80
2019-05-09T07:53:00.222Z,9.13
2019-05-09T07:55:29.869Z,11.57
2019-05-09T07:57:59.515Z,13.22
2019-05-09T08:00:35.284Z,10.38
2019-05-09T08:03:08.336Z,11.50
2019-05-09T08:05:38.504Z,12.88
2019-05-09T08:08:11.762Z,12.75
2019-05-09T08:10:41.397Z,13.38
2019-05-09T08:13:12.050Z,27.52
2019-05-09T08:15:41.886Z,15.10
2019-05-09T08:18:11.643Z,16.65
2019-05-09T08:20:41.351Z,14.40
2019-05-09T08:23:11.080Z,20.90
2019-05-09T08:25:40.923Z,17.17
2019-05-09T08:28:10.716Z,17.67
2019-05-09T08:30:40.659Z,14.68
2019-05-09T08:33:10.307Z,10.98
2019-05-09T08:35:39.951Z,14.53
2019-05-09T08:38:09.614Z,37.00
2019-05-09T08:40:39.249Z,35.10
2019-05-09T08:43:08.917Z,29.32
2019-05-09T08:45:38.561Z,20.08
2019-05-09T08:48:09.425Z,11.15
2019-05-09T08:50:48.139Z,14.80
2019-05-09T08:53:18.937Z,11.08
2019-05-09T08:55:48.690Z,9.80
2019-05-09T08:58:19.673Z,10.90
2019-05-09T09:00:49.795Z,16.17
2019-05-09T09:03:19.477Z,14.78
2019-05-09T09:05:49.105Z,9.78
2019-05-09T09:08:18.771Z,12.78
2019-05-09T09:10:48.922Z,13.78
2019-05-09T09:13:18.668Z,10.58
2019-05-09T09:16:08.564Z,14.70
2019-05-09T09:18:19.664Z,13.85
2019-05-09T09:20:49.320Z,16.10
2019-05-09T09:23:19.065Z,11.00
2019-05-09T09:25:49.007Z,12.28
2019-05-09T09:28:18.640Z,11.80
2019-05-09T09:30:48.690Z,10.43
2019-05-09T09:33:18.316Z,10.93
2019-05-09T09:35:49.411Z,11.55
2019-05-09T09:38:19.040Z,9.70
2019-05-09T09:40:48.800Z,11.25
2019-05-09T09:43:18.432Z,11.93
2019-05-09T09:45:57.715Z,12.50
2019-05-09T09:48:19.505Z,13.93
2019-05-09T09:50:51.723Z,16.02
2019-05-09T09:53:20.490Z,14.18
2019-05-09T09:55:50.170Z,12.35
2019-05-09T09:58:19.813Z,16.73
2019-05-09T10:00:51.411Z,15.20
2019-05-09T10:03:21.129Z,13.45
2019-05-09T10:05:51.296Z,12.45
2019-05-09T10:08:21.164Z,10.72
2019-05-09T10:10:50.842Z,12.98
2019-05-09T10:13:20.524Z,12.47
2019-05-09T10:15:54.535Z,12.68
2019-05-09T10:18:38.223Z,17.42
2019-05-09T10:21:15.413Z,12.85
2019-05-09T10:23:45.036Z,10.68
2019-05-09T10:26:14.723Z,11.22
2019-05-09T10:28:45.510Z,12.78
2019-05-09T10:31:15.389Z,13.90
2019-05-09T10:33:45.015Z,13.88
2019-05-09T10:36:14.687Z,12.73
2019-05-09T10:38:44.336Z,12.73
2019-05-09T10:41:13.998Z,12.07
2019-05-09T10:43:45.265Z,15.43
2019-05-09T10:46:30.001Z,15.98
2019-05-09T10:49:04.543Z,26.40
2019-05-09T10:51:34.210Z,14.58
2019-05-09T10:54:03.955Z,15.38
2019-05-09T10:56:38.163Z,14.68
2019-05-09T10:59:07.839Z,13.95
2019-05-09T11:01:38.360Z,12.53
2019-05-09T11:04:08.533Z,11.10
2019-05-09T11:06:38.585Z,11.10
2019-05-09T11:09:09.948Z,11.22
2019-05-09T11:11:39.910Z,10.25
2019-05-09T11:14:09.534Z,11.85
2019-05-09T11:16:45.721Z,10.70
2019-05-09T11:19:10.529Z,11.22
2019-05-09T11:21:40.178Z,12.75
2019-05-09T11:24:09.951Z,14.93
2019-05-09T11:26:40.118Z,12.70
2019-05-09T11:29:09.822Z,13.70
2019-05-09T11:31:39.460Z,10.72
2019-05-09T11:34:09.237Z,10.30
2019-05-09T11:36:38.844Z,10.60
2019-05-09T11:39:10.734Z,10.55
2019-05-09T11:41:40.360Z,12.03
2019-05-09T11:44:10.129Z,11.05
2019-05-09T11:46:39.755Z,9.48
2019-05-09T11:49:09.416Z,9.60
2019-05-09T11:51:39.051Z,10.65
2019-05-09T11:54:09.273Z,9.88
2019-05-09T11:56:38.924Z,9.45
2019-05-09T11:59:10.022Z,10.50
2019-05-09T12:01:40.016Z,10.28
2019-05-09T12:04:09.884Z,10.20
2019-05-09T12:06:39.512Z,9.68
2019-05-09T12:09:09.647Z,8.33
2019-05-09T12:11:44.223Z,7.05
2019-05-09T12:14:10.807Z,8.23
2019-05-09T12:16:40.429Z,8.15
2019-05-09T12:19:10.087Z,7.22
2019-05-09T12:21:47.610Z,6.97
2019-05-09T12:24:11.589Z,6.37
2019-05-09T12:26:41.215Z,6.55
2019-05-09T12:29:10.887Z,6.65
2019-05-09T12:31:40.512Z,7.42
2019-05-09T12:34:10.192Z,12.28
2019-05-09T12:36:40.117Z,8.68
2019-05-09T12:39:09.754Z,8.30
2019-05-09T12:41:39.873Z,7.75
2019-05-09T12:44:09.690Z,7.95
2019-05-09T12:46:39.666Z,7.92
2019-05-09T12:49:09.343Z,7.90
2019-05-09T12:51:38.969Z,8.98
2019-05-09T12:54:08.870Z,8.33
2019-05-09T12:56:38.749Z,8.00
2019-05-09T12:59:08.943Z,7.42
2019-05-09T13:01:40.779Z,7.87
2019-05-09T13:04:10.025Z,7.70
2019-05-09T13:06:39.693Z,7.35
2019-05-09T13:09:09.334Z,7.42
2019-05-09T13:11:39.305Z,7.17
2019-05-09T13:14:10.112Z,7.10
2019-05-09T13:16:49.036Z,7.25
2019-05-09T13:19:14.671Z,6.97
2019-05-09T13:21:44.328Z,9.15
2019-05-09T13:24:13.958Z,7.17
2019-05-09T13:26:47.824Z,6.55
2019-05-09T13:29:16.650Z,6.47
2019-05-09T13:31:48.310Z,7.35
2019-05-09T13:34:18.860Z,7.10
2019-05-09T13:36:49.093Z,7.28
2019-05-09T13:39:18.734Z,6.97
2019-05-09T13:41:48.376Z,7.33
2019-05-09T13:44:18.348Z,7.92
2019-05-09T13:46:48.829Z,7.40
2019-05-09T13:49:19.389Z,8.23
2019-05-09T13:51:58.572Z,7.78
2019-05-09T13:54:20.526Z,6.65
2019-05-09T13:56:56.985Z,8.33
2019-05-09T13:59:21.643Z,7.75
2019-05-09T14:01:51.312Z,8.70
2019-05-09T14:04:21.432Z,6.97
2019-05-09T14:06:51.783Z,6.92
2019-05-09T14:09:21.412Z,7.03
2019-05-09T14:11:52.067Z,7.10
2019-05-09T14:14:21.699Z,6.92
2019-05-09T14:16:51.360Z,7.53
2019-05-09T14:19:35.921Z,7.75
2019-05-09T14:21:52.361Z,8.25
2019-05-09T14:24:22.070Z,7.03
2019-05-09T14:26:51.718Z,6.90
2019-05-09T14:29:21.336Z,7.10
2019-05-09T14:31:51.091Z,7.75
2019-05-09T14:34:21.120Z,8.05
2019-05-09T14:36:50.776Z,10.30
2019-05-09T14:39:20.427Z,8.25
2019-05-09T14:41:50.069Z,7.80
2019-05-09T14:44:19.697Z,8.08
2019-05-09T14:46:49.371Z,8.98
2019-05-09T14:49:19.584Z,10.18
2019-05-09T14:51:50.044Z,8.38
2019-05-09T14:54:19.855Z,7.47
2019-05-09T14:56:49.513Z,7.53
2019-05-09T14:59:19.150Z,7.87
2019-05-09T15:01:49.503Z,7.90
2019-05-09T15:04:19.403Z,7.95
2019-05-09T15:06:49.061Z,7.70
2019-05-09T15:09:18.681Z,6.62
2019-05-09T15:11:48.699Z,9.00
2019-05-09T15:14:18.455Z,7.72
2019-05-09T15:16:48.656Z,8.05
2019-05-09T15:19:18.568Z,10.43
2019-05-09T15:21:48.915Z,7.72
2019-05-09T15:24:19.407Z,9.60
2019-05-09T15:26:49.317Z,8.05
2019-05-09T15:29:19.283Z,10.18
2019-05-09T15:31:54.265Z,10.43
2019-05-09T15:34:20.357Z,15.08
2019-05-09T15:36:51.149Z,26.15
2019-05-09T15:39:20.803Z,9.08
2019-05-09T15:41:50.432Z,7.87
2019-05-09T15:44:20.108Z,8.28
2019-05-09T15:47:03.435Z,7.53
2019-05-09T15:49:33.110Z,6.97
2019-05-09T15:52:03.109Z,7.85
2019-05-09T15:54:32.812Z,8.10
2019-05-09T15:57:11.820Z,9.50
2019-05-09T15:59:43.189Z,14.53
2019-05-09T16:02:12.977Z,8.35
2019-05-09T16:04:43.096Z,8.08
2019-05-09T16:07:13.193Z,7.58
2019-05-09T16:09:42.852Z,8.60
2019-05-09T16:12:12.480Z,8.43
2019-05-09T16:14:42.176Z,7.87
2019-05-09T16:17:11.900Z,8.78
2019-05-09T16:19:41.559Z,7.40
2019-05-09T16:22:11.183Z,7.95
2019-05-09T16:24:43.347Z,8.80
2019-05-09T16:27:13.065Z,8.08
2019-05-09T16:29:43.027Z,8.20
2019-05-09T16:32:12.752Z,9.03
2019-05-09T16:34:42.412Z,7.72
2019-05-09T16:37:12.067Z,8.28
2019-05-09T16:39:43.083Z,9.13
2019-05-09T16:42:12.730Z,7.95
2019-05-09T16:44:42.398Z,10.18
2019-05-09T16:47:12.025Z,8.80
2019-05-09T16:49:41.693Z,7.65
2019-05-09T16:52:11.323Z,7.83
2019-05-09T16:54:42.701Z,8.23
2019-05-09T16:57:12.433Z,7.92
2019-05-09T16:59:42.259Z,7.80
2019-05-09T17:02:21.800Z,9.10
2019-05-09T17:04:43.310Z,9.58
2019-05-09T17:07:15.375Z,9.70
2019-05-09T17:09:48.363Z,8.43
2019-05-09T17:12:18.617Z,10.45
2019-05-09T17:14:50.081Z,22.65
2019-05-09T17:17:19.785Z,25.43
2019-05-09T17:19:50.740Z,16.12
2019-05-09T17:22:40.689Z,9.05
2019-05-09T17:25:10.586Z,9.43
2019-05-09T17:27:40.203Z,9.20
2019-05-09T17:30:10.197Z,9.58
2019-05-09T17:32:40.115Z,8.90
2019-05-09T17:35:09.864Z,8.38
2019-05-09T17:37:39.543Z,8.95
2019-05-09T17:40:10.190Z,11.18
2019-05-09T17:42:39.821Z,9.40
2019-05-09T17:45:09.495Z,9.38
2019-05-09T17:47:39.191Z,10.13
2019-05-09T17:50:08.986Z,9.23
2019-05-09T17:52:38.617Z,11.08
2019-05-09T17:55:08.295Z,13.40
2019-05-09T17:57:38.802Z,23.50
2019-05-09T18:00:10.671Z,18.10
2019-05-09T18:02:40.303Z,16.32
2019-05-09T18:05:10.116Z,14.40
2019-05-09T18:07:39.747Z,16.07
2019-05-09T18:10:09.879Z,56.70
2019-05-09T18:12:39.523Z,77.97
2019-05-09T18:15:09.434Z,59.65
2019-05-09T18:17:39.390Z,44.00
2019-05-09T18:20:09.325Z,33.23
2019-05-09T18:22:38.951Z,32.35
2019-05-09T18:25:09.939Z,34.25
2019-05-09T18:27:39.603Z,70.97
2019-05-09T18:30:10.083Z,133.82
2019-05-09T18:32:41.682Z,143.13
2019-05-09T18:35:13.173Z,115.20
2019-05-09T18:37:43.074Z,102.90
2019-05-09T18:40:13.450Z,79.53
2019-05-09T18:42:47.568Z,70.80
2019-05-09T18:45:17.746Z,62.17
2019-05-09T18:47:50.754Z,55.55
2019-05-09T18:50:22.230Z,55.48
2019-05-09T18:52:55.001Z,50.28
2019-05-09T18:55:24.770Z,49.15
2019-05-09T18:57:56.799Z,47.20
2019-05-09T19:00:27.273Z,42.70
2019-05-09T19:02:57.080Z,43.90
2019-05-09T19:05:27.156Z,45.50
2019-05-09T19:07:58.887Z,34.40
2019-05-09T19:10:28.629Z,35.98
2019-05-09T19:12:58.285Z,38.15
2019-05-09T19:15:41.598Z,55.83
2019-05-09T19:18:12.902Z,57.67
2019-05-09T19:20:50.251Z,51.02
2019-05-09T19:23:21.631Z,51.42
2019-05-09T19:25:53.488Z,46.13
2019-05-09T19:28:25.074Z,45.67
2019-05-09T19:30:54.860Z,42.88
2019-05-09T19:33:24.834Z,38.13
2019-05-09T19:35:54.608Z,40.10
2019-05-09T19:38:24.404Z,40.30
2019-05-09T19:40:54.220Z,37.88
2019-05-09T19:43:23.951Z,35.38
2019-05-09T19:45:53.669Z,38.70
2019-05-09T19:48:26.154Z,40.73
2019-05-09T19:50:58.857Z,39.63
2019-05-09T19:53:28.673Z,37.33
2019-05-09T19:55:58.543Z,38.40
2019-05-09T19:58:28.294Z,42.17
2019-05-09T20:00:58.052Z,45.10
2019-05-09T20:03:27.815Z,41.35
2019-05-09T20:06:00.576Z,41.65
2019-05-09T20:08:34.118Z,40.23
2019-05-09T20:11:06.889Z,40.43
2019-05-09T20:13:54.250Z,40.63
2019-05-09T20:16:24.263Z,43.00
2019-05-09T20:18:54.069Z,39.00
2019-05-09T20:21:23.882Z,40.65
2019-05-09T20:23:53.655Z,36.35
2019-05-09T20:26:23.438Z,37.75
2019-05-09T20:28:53.128Z,36.68
2019-05-09T20:31:23.286Z,40.17
2019-05-09T20:33:53.255Z,39.48
2019-05-09T20:36:22.932Z,39.73
2019-05-09T20:38:53.484Z,40.08
2019-05-09T20:41:26.926Z,39.78
2019-05-09T20:43:56.785Z,39.63
2019-05-09T20:46:26.717Z,42.13
2019-05-09T20:48:56.570Z,42.33
2019-05-09T20:51:26.388Z,41.05
2019-05-09T20:53:56.332Z,42.20
2019-05-09T20:56:26.143Z,45.05
2019-05-09T20:58:56.071Z,46.58
2019-05-09T21:01:25.887Z,42.15
2019-05-09T21:04:00.176Z,42.27
2019-05-09T21:06:27.262Z,41.18
2019-05-09T21:08:57.098Z,45.28
2019-05-09T21:11:26.917Z,46.02
2019-05-09T21:13:56.948Z,45.48
2019-05-09T21:16:26.760Z,57.10
2019-05-09T21:18:56.596Z,44.65
2019-05-09T21:21:26.401Z,49.63
2019-05-09T21:23:56.242Z,50.55
2019-05-09T21:26:26.052Z,58.90
2019-05-09T21:28:55.889Z,70.70
2019-05-09T21:31:25.711Z,52.73
2019-05-09T21:33:55.766Z,53.40
2019-05-09T21:36:25.423Z,53.92
2019-05-09T21:38:55.057Z,59.65
2019-05-09T21:41:24.721Z,67.58
2019-05-09T21:43:54.349Z,66.87
2019-05-09T21:46:24.014Z,66.57
2019-05-09T21:48:53.640Z,65.08
2019-05-09T21:51:23.300Z,66.97
2019-05-09T21:53:52.928Z,59.90
2019-05-09T21:56:22.585Z,60.78
2019-05-09T21:58:52.215Z,66.05
2019-05-09T22:01:21.945Z,64.30
2019-05-09T22:03:51.813Z,64.45
2019-05-09T22:06:21.469Z,62.03
2019-05-09T22:08:51.145Z,61.28
2019-05-09T22:11:20.909Z,62.53
2019-05-09T22:13:50.536Z,58.92
2019-05-09T22:16:20.196Z,55.55
2019-05-09T22:18:49.892Z,52.20
2019-05-09T22:21:22.469Z,51.28
2019-05-09T22:23:56.622Z,44.85
2019-05-09T22:26:23.466Z,43.90
2019-05-09T22:28:53.091Z,42.35
2019-05-09T22:31:22.748Z,35.78
2019-05-09T22:33:52.383Z,35.00
2019-05-09T22:36:22.035Z,31.97
2019-05-09T22:38:51.670Z,29.90
2019-05-09T22:41:21.319Z,27.30
2019-05-09T22:43:50.948Z,38.35
2019-05-09T22:46:20.609Z,43.23
2019-05-09T22:48:50.240Z,29.70
2019-05-09T22:51:19.992Z,28.32
2019-05-09T22:53:49.621Z,29.37
2019-05-09T22:56:19.323Z,33.80
2019-05-09T22:58:48.938Z,32.42
2019-05-09T23:01:18.700Z,32.85
2019-05-09T23:03:48.522Z,32.05
2019-05-09T23:06:18.278Z,27.85
2019-05-09T23:08:48.004Z,26.55
2019-05-09T23:11:17.753Z,27.25
2019-05-09T23:13:53.408Z,29.20
2019-05-09T23:16:25.638Z,30.10
2019-05-09T23:18:55.623Z,28.00
2019-05-09T23:21:27.019Z,27.10
2019-05-09T23:24:04.418Z,26.60
2019-05-09T23:26:34.200Z,26.70
2019-05-09T23:29:03.896Z,26.15
2019-05-09T23:31:35.791Z,26.00
2019-05-09T23:34:05.656Z,24.32
2019-05-09T23:36:35.709Z,25.85
2019-05-09T23:39:19.752Z,25.77
2019-05-09T23:41:49.505Z,24.20
2019-05-09T23:44:19.150Z,24.35
2019-05-09T23:46:48.778Z,23.52
2019-05-09T23:49:18.442Z,23.15
2019-05-09T23:51:48.829Z,23.45
2019-05-09T23:54:46.427Z,23.07
2019-05-09T23:57:29.654Z,22.87
